createdAt,value
2022-12-18T00:01:30.582Z,34.47
2022-12-18T00:03:58.806Z,34.37
2022-12-18T00:06:29.286Z,45.17
2022-12-18T00:08:58.530Z,38.87
2022-12-18T00:11:29.456Z,39.87
2022-12-18T00:13:59.354Z,40.70
2022-12-18T00:16:30.910Z,36.73
2022-12-18T00:18:59.299Z,33.40
2022-12-18T00:21:27.911Z,28.97
2022-12-18T00:23:55.827Z,37.20
2022-12-18T00:26:25.597Z,31.40
2022-12-18T00:28:54.124Z,31.53
2022-12-18T00:31:24.213Z,30.67
2022-12-18T00:33:54.526Z,30.70
2022-12-18T00:36:25.302Z,33.10
2022-12-18T00:38:53.571Z,31.83
2022-12-18T00:41:35.789Z,37.30
2022-12-18T00:44:04.236Z,31.03
2022-12-18T00:46:32.419Z,34.87
2022-12-18T00:49:01.928Z,34.07
2022-12-18T00:51:29.906Z,33.43
2022-12-18T00:53:58.027Z,35.13
2022-12-18T00:56:26.282Z,30.27
2022-12-18T00:58:54.542Z,31.63
2022-12-18T01:01:22.619Z,31.60
2022-12-18T01:03:50.613Z,29.80
2022-12-18T01:06:19.813Z,40.17
2022-12-18T01:08:47.677Z,30.93
2022-12-18T01:11:17.888Z,33.00
2022-12-18T01:13:46.303Z,31.90
2022-12-18T01:16:14.789Z,37.90
2022-12-18T01:18:42.812Z,31.50
2022-12-18T01:21:13.461Z,30.03
2022-12-18T01:23:42.841Z,32.40
2022-12-18T01:26:15.645Z,34.83
2022-12-18T01:28:44.617Z,35.30
2022-12-18T01:31:18.037Z,32.33
2022-12-18T01:33:46.774Z,35.27
2022-12-18T01:36:19.127Z,32.40
2022-12-18T01:38:48.933Z,33.43
2022-12-18T01:41:20.008Z,34.17
2022-12-18T01:43:51.406Z,34.20
2022-12-18T01:46:20.812Z,37.83
2022-12-18T01:48:51.852Z,40.00
2022-12-18T01:51:20.161Z,38.40
2022-12-18T01:53:50.269Z,35.20
2022-12-18T01:56:20.670Z,34.87
2022-12-18T01:58:55.975Z,33.13
2022-12-18T02:01:25.496Z,37.13
2022-12-18T02:03:54.540Z,37.50
2022-12-18T02:06:29.476Z,36.63
2022-12-18T02:09:09.820Z,43.30
2022-12-18T02:11:48.346Z,37.63
2022-12-18T02:14:28.997Z,45.93
2022-12-18T02:17:02.936Z,33.73
2022-12-18T02:19:46.127Z,33.93
2022-12-18T02:22:28.532Z,36.40
2022-12-18T02:25:06.931Z,44.57
2022-12-18T02:27:39.098Z,42.90
2022-12-18T02:30:08.988Z,40.37
2022-12-18T02:32:40.968Z,32.80
2022-12-18T02:35:13.908Z,33.37
2022-12-18T02:37:44.039Z,38.50
2022-12-18T02:40:13.544Z,34.73
2022-12-18T02:42:42.945Z,35.43
2022-12-18T02:45:11.656Z,37.50
2022-12-18T02:47:42.687Z,34.73
2022-12-18T02:50:20.704Z,33.87
2022-12-18T02:52:58.105Z,34.13
2022-12-18T02:55:35.904Z,35.60
2022-12-18T02:58:12.769Z,35.53
2022-12-18T03:00:44.860Z,35.80
2022-12-18T03:03:16.647Z,38.07
2022-12-18T03:05:50.380Z,35.87
2022-12-18T03:08:21.028Z,48.03
2022-12-18T03:10:54.582Z,33.63
2022-12-18T03:13:29.427Z,33.43
2022-12-18T03:16:00.306Z,31.83
2022-12-18T03:18:35.363Z,35.00
2022-12-18T03:21:07.863Z,31.73
2022-12-18T03:23:39.307Z,32.73
2022-12-18T03:26:11.462Z,34.77
2022-12-18T03:28:43.887Z,33.57
2022-12-18T03:31:15.066Z,42.87
2022-12-18T03:33:47.763Z,41.00
2022-12-18T03:36:16.055Z,40.30
2022-12-18T03:38:44.112Z,33.43
2022-12-18T03:41:20.089Z,34.10
2022-12-18T03:43:53.862Z,27.30
2022-12-18T03:46:29.174Z,37.30
2022-12-18T03:49:03.397Z,34.00
2022-12-18T03:51:41.339Z,29.40
2022-12-18T03:54:11.060Z,34.13
2022-12-18T03:56:43.417Z,37.77
2022-12-18T03:59:14.632Z,31.23
2022-12-18T04:01:45.961Z,29.83
2022-12-18T04:04:16.397Z,28.87
2022-12-18T04:06:47.315Z,34.30
2022-12-18T04:09:15.718Z,35.23
2022-12-18T04:11:44.742Z,36.67
2022-12-18T04:14:17.657Z,33.63
2022-12-18T04:16:46.282Z,32.70
2022-12-18T04:19:14.294Z,31.13
2022-12-18T04:21:42.343Z,34.30
2022-12-18T04:24:10.373Z,28.00
2022-12-18T04:26:39.285Z,36.77
2022-12-18T04:29:07.169Z,29.47
2022-12-18T04:31:36.432Z,39.20
2022-12-18T04:34:04.426Z,32.77
2022-12-18T04:36:32.387Z,32.23
2022-12-18T04:39:00.302Z,35.40
2022-12-18T04:41:28.146Z,39.93
2022-12-18T04:43:55.971Z,31.27
2022-12-18T04:46:23.843Z,35.07
2022-12-18T04:48:53.078Z,26.73
2022-12-18T04:51:26.178Z,27.67
2022-12-18T04:53:54.616Z,32.67
2022-12-18T04:56:23.227Z,25.47
2022-12-18T04:58:51.309Z,23.20
2022-12-18T05:01:20.222Z,24.43
2022-12-18T05:03:48.313Z,26.87
2022-12-18T05:06:17.553Z,31.23
2022-12-18T05:08:45.411Z,26.13
2022-12-18T05:11:16.553Z,27.73
2022-12-18T05:13:45.622Z,22.93
2022-12-18T05:16:15.082Z,28.30
2022-12-18T05:18:43.137Z,20.70
2022-12-18T05:21:11.052Z,24.57
2022-12-18T05:23:40.742Z,21.50
2022-12-18T05:26:09.143Z,22.87
2022-12-18T05:28:38.126Z,24.13
2022-12-18T05:31:06.970Z,21.77
2022-12-18T05:33:36.471Z,24.37
2022-12-18T05:36:06.662Z,37.13
2022-12-18T05:38:35.946Z,39.60
2022-12-18T05:41:06.135Z,34.57
2022-12-18T05:43:35.779Z,32.10
2022-12-18T05:46:06.505Z,40.87
2022-12-18T05:48:34.579Z,32.03
2022-12-18T05:51:07.972Z,40.43
2022-12-18T05:53:37.129Z,38.10
2022-12-18T05:56:08.887Z,33.80
2022-12-18T05:58:37.032Z,41.80
2022-12-18T06:01:09.992Z,34.03
2022-12-18T06:03:38.183Z,39.27
2022-12-18T06:06:14.276Z,43.40
2022-12-18T06:08:46.244Z,38.63
2022-12-18T06:11:20.459Z,34.30
2022-12-18T06:13:48.561Z,44.07
2022-12-18T06:16:16.432Z,33.33
2022-12-18T06:18:44.372Z,36.03
2022-12-18T06:21:12.684Z,36.23
2022-12-18T06:23:40.969Z,39.27
2022-12-18T06:26:10.430Z,31.90
2022-12-18T06:28:40.173Z,37.50
2022-12-18T06:31:08.937Z,30.27
2022-12-18T06:33:37.821Z,28.43
2022-12-18T06:36:08.273Z,22.50
2022-12-18T06:38:37.997Z,23.00
2022-12-18T06:41:10.365Z,28.63
2022-12-18T06:43:39.988Z,24.13
2022-12-18T06:46:08.498Z,25.40
2022-12-18T06:48:36.677Z,21.90
2022-12-18T06:51:05.257Z,23.13
2022-12-18T06:53:34.263Z,25.50
2022-12-18T06:56:09.173Z,24.20
2022-12-18T06:58:39.335Z,27.20
2022-12-18T07:01:09.750Z,20.50
2022-12-18T07:03:38.218Z,25.70
2022-12-18T07:06:06.991Z,21.63
2022-12-18T07:08:35.149Z,18.67
2022-12-18T07:11:05.769Z,21.70
2022-12-18T07:13:33.879Z,24.50
2022-12-18T07:16:18.328Z,19.70
2022-12-18T07:18:49.153Z,21.37
2022-12-18T07:21:18.525Z,25.63
2022-12-18T07:23:48.770Z,25.10
2022-12-18T07:26:19.209Z,28.90
2022-12-18T07:28:47.206Z,30.73
2022-12-18T07:31:18.623Z,27.43
2022-12-18T07:33:46.885Z,43.70
2022-12-18T07:36:15.644Z,44.40
2022-12-18T07:38:43.587Z,69.97
2022-12-18T07:41:13.553Z,74.83
2022-12-18T07:43:42.741Z,73.37
2022-12-18T07:46:11.817Z,75.60
2022-12-18T07:48:43.489Z,74.43
2022-12-18T07:51:13.407Z,61.90
2022-12-18T07:53:42.356Z,50.93
2022-12-18T07:56:29.600Z,49.27
2022-12-18T07:58:59.309Z,45.20
2022-12-18T08:01:27.398Z,49.63
2022-12-18T08:03:56.741Z,44.63
2022-12-18T08:06:24.959Z,41.90
2022-12-18T08:08:54.438Z,37.93
2022-12-18T08:11:22.680Z,35.67
2022-12-18T08:13:50.549Z,36.13
2022-12-18T08:16:18.816Z,34.50
2022-12-18T08:18:47.578Z,29.87
2022-12-18T08:21:21.839Z,34.40
2022-12-18T08:23:51.328Z,27.07
2022-12-18T08:26:19.624Z,25.83
2022-12-18T08:28:48.930Z,27.43
2022-12-18T08:31:17.772Z,32.27
2022-12-18T08:33:45.721Z,28.40
2022-12-18T08:36:16.202Z,30.73
2022-12-18T08:38:44.053Z,29.50
2022-12-18T08:41:13.615Z,26.60
2022-12-18T08:43:59.485Z,29.07
2022-12-18T08:46:29.251Z,26.93
2022-12-18T08:48:57.472Z,33.10
2022-12-18T08:51:26.717Z,29.27
2022-12-18T08:53:54.570Z,32.30
2022-12-18T08:56:22.432Z,28.80
2022-12-18T08:58:54.108Z,37.40
2022-12-18T09:01:22.597Z,33.43
2022-12-18T09:03:50.680Z,33.63
2022-12-18T09:06:19.994Z,31.00
2022-12-18T09:08:49.253Z,36.17
2022-12-18T09:11:21.956Z,32.90
2022-12-18T09:13:49.825Z,30.07
2022-12-18T09:16:17.785Z,35.20
2022-12-18T09:18:45.910Z,34.00
2022-12-18T09:21:15.975Z,39.33
2022-12-18T09:23:44.440Z,36.73
2022-12-18T09:26:13.660Z,36.00
2022-12-18T09:28:42.011Z,36.67
2022-12-18T09:31:10.932Z,38.10
2022-12-18T09:33:39.062Z,35.80
2022-12-18T09:36:11.065Z,33.33
2022-12-18T09:38:39.340Z,33.47
2022-12-18T09:41:19.266Z,32.00
2022-12-18T09:43:51.628Z,37.50
2022-12-18T09:46:28.317Z,40.17
2022-12-18T09:49:00.941Z,44.20
2022-12-18T09:51:34.442Z,41.43
2022-12-18T09:54:06.546Z,34.23
2022-12-18T09:56:39.639Z,39.10
2022-12-18T09:59:20.053Z,35.30
2022-12-18T10:01:48.039Z,33.83
2022-12-18T10:04:16.020Z,37.43
2022-12-18T10:06:52.172Z,40.23
2022-12-18T10:09:30.405Z,42.27
2022-12-18T10:12:10.584Z,35.97
2022-12-18T10:14:48.611Z,36.83
2022-12-18T10:17:25.314Z,32.00
2022-12-18T10:19:58.242Z,37.13
2022-12-18T10:22:40.098Z,39.43
2022-12-18T10:25:19.613Z,32.93
2022-12-18T10:27:47.571Z,34.30
2022-12-18T10:30:19.388Z,37.80
2022-12-18T10:32:47.353Z,33.77
2022-12-18T10:35:21.463Z,39.10
2022-12-18T10:38:04.129Z,36.43
2022-12-18T10:40:32.714Z,35.40
2022-12-18T10:43:15.448Z,37.30
2022-12-18T10:45:59.365Z,33.50
2022-12-18T10:48:27.423Z,30.40
2022-12-18T10:51:12.947Z,34.30
2022-12-18T10:53:43.832Z,35.40
2022-12-18T10:56:12.573Z,34.87
2022-12-18T10:58:41.697Z,38.40
2022-12-18T11:01:13.623Z,29.63
2022-12-18T11:03:43.568Z,30.43
2022-12-18T11:06:14.312Z,31.53
2022-12-18T11:08:44.366Z,26.23
2022-12-18T11:11:22.028Z,29.10
2022-12-18T11:14:01.266Z,31.20
2022-12-18T11:16:32.615Z,32.47
2022-12-18T11:19:23.533Z,35.47
2022-12-18T11:21:51.776Z,33.10
2022-12-18T11:24:33.637Z,31.93
2022-12-18T11:27:03.824Z,41.60
2022-12-18T11:29:35.918Z,37.43
2022-12-18T11:32:29.192Z,37.00
2022-12-18T11:35:04.956Z,35.23
2022-12-18T11:37:34.794Z,36.23
2022-12-18T11:40:10.087Z,40.67
2022-12-18T11:42:43.454Z,36.47
2022-12-18T11:45:26.987Z,28.43
2022-12-18T11:48:01.291Z,36.00
2022-12-18T11:50:34.498Z,32.23
2022-12-18T11:53:06.258Z,32.97
2022-12-18T11:55:40.517Z,35.57
2022-12-18T11:58:18.579Z,41.20
2022-12-18T12:00:54.500Z,35.50
2022-12-18T12:03:45.597Z,32.87
2022-12-18T12:06:19.739Z,35.07
2022-12-18T12:09:03.235Z,32.40
2022-12-18T12:11:38.696Z,37.20
2022-12-18T12:14:21.525Z,40.53
2022-12-18T12:16:56.093Z,34.07
2022-12-18T12:19:38.415Z,35.60
2022-12-18T12:22:14.236Z,37.80
2022-12-18T12:24:52.035Z,36.73
2022-12-18T12:27:26.174Z,32.80
2022-12-18T12:30:04.694Z,39.30
2022-12-18T12:32:46.784Z,40.80
2022-12-18T12:35:31.575Z,39.90
2022-12-18T12:38:08.767Z,39.20
2022-12-18T12:40:52.611Z,36.57
2022-12-18T12:43:36.061Z,36.57
2022-12-18T12:46:07.783Z,37.07
2022-12-18T12:48:43.481Z,37.50
2022-12-18T12:51:18.367Z,33.43
2022-12-18T12:53:47.521Z,35.33
2022-12-18T12:56:18.413Z,35.10
2022-12-18T12:59:01.740Z,37.60
2022-12-18T13:01:39.320Z,38.63
2022-12-18T13:04:23.925Z,30.10
2022-12-18T13:07:01.392Z,38.47
2022-12-18T13:09:32.491Z,38.63
2022-12-18T13:12:22.857Z,35.77
2022-12-18T13:14:51.040Z,38.97
2022-12-18T13:17:31.796Z,32.27
2022-12-18T13:20:15.565Z,35.00
2022-12-18T13:22:48.509Z,36.67
2022-12-18T13:25:35.598Z,36.87
2022-12-18T13:28:14.552Z,39.00
2022-12-18T13:30:56.656Z,38.70
2022-12-18T13:34:16.460Z,42.77
2022-12-18T13:36:35.256Z,42.13
2022-12-18T13:39:36.808Z,38.73
2022-12-18T13:42:51.813Z,40.17
2022-12-18T13:45:44.736Z,35.47
2022-12-18T13:48:21.200Z,33.90
2022-12-18T13:50:54.139Z,35.90
2022-12-18T13:53:25.550Z,38.37
2022-12-18T13:55:55.044Z,37.93
2022-12-18T13:58:22.953Z,36.67
2022-12-18T14:00:50.896Z,37.40
2022-12-18T14:03:23.127Z,39.10
2022-12-18T14:05:57.653Z,35.60
2022-12-18T14:08:27.072Z,47.53
2022-12-18T14:10:58.316Z,35.73
2022-12-18T14:13:30.829Z,39.20
2022-12-18T14:16:00.932Z,41.93
2022-12-18T14:18:38.817Z,38.93
2022-12-18T14:21:07.613Z,35.33
2022-12-18T14:23:38.114Z,38.10
2022-12-18T14:26:24.381Z,35.50
2022-12-18T14:28:52.416Z,36.63
2022-12-18T14:31:21.596Z,34.97
2022-12-18T14:33:49.729Z,40.07
2022-12-18T14:36:19.237Z,34.50
2022-12-18T14:38:51.764Z,37.50
2022-12-18T14:41:21.872Z,38.63
2022-12-18T14:43:51.213Z,35.17
2022-12-18T14:46:31.456Z,37.37
2022-12-18T14:48:59.644Z,34.67
2022-12-18T14:51:28.907Z,35.90
2022-12-18T14:53:59.023Z,43.43
2022-12-18T14:56:30.653Z,34.90
2022-12-18T14:59:01.174Z,33.73
2022-12-18T15:01:31.933Z,37.83
2022-12-18T15:04:01.394Z,35.03
2022-12-18T15:06:33.539Z,41.63
2022-12-18T15:09:03.082Z,38.03
2022-12-18T15:11:47.898Z,40.27
2022-12-18T15:14:32.436Z,50.17
2022-12-18T15:17:01.501Z,45.97
2022-12-18T15:19:37.564Z,50.40
2022-12-18T15:22:06.818Z,44.20
2022-12-18T15:24:35.256Z,51.53
2022-12-18T15:27:04.616Z,43.30
2022-12-18T15:29:32.458Z,45.33
2022-12-18T15:32:02.792Z,39.90
2022-12-18T15:34:31.232Z,46.17
2022-12-18T15:36:59.168Z,46.40
2022-12-18T15:39:27.005Z,47.50
2022-12-18T15:42:12.275Z,49.50
2022-12-18T15:44:41.499Z,41.87
2022-12-18T15:47:14.229Z,58.27
2022-12-18T15:49:42.113Z,48.90
2022-12-18T15:52:26.719Z,55.57
2022-12-18T15:55:12.468Z,57.83
2022-12-18T15:57:40.318Z,59.00
2022-12-18T16:00:14.521Z,53.00
2022-12-18T16:02:42.537Z,55.60
2022-12-18T16:05:17.861Z,53.40
2022-12-18T16:07:45.833Z,59.60
2022-12-18T16:10:13.739Z,58.23
2022-12-18T16:12:42.428Z,68.10
2022-12-18T16:15:15.277Z,59.97
2022-12-18T16:17:45.524Z,85.93
2022-12-18T16:20:16.945Z,66.73
2022-12-18T16:22:46.928Z,75.57
2022-12-18T16:25:20.452Z,55.57
2022-12-18T16:27:48.592Z,58.97
2022-12-18T16:30:22.107Z,54.03
2022-12-18T16:32:50.580Z,54.83
2022-12-18T16:35:19.063Z,57.40
2022-12-18T16:37:46.949Z,54.87
2022-12-18T16:40:17.972Z,60.90
2022-12-18T16:42:47.238Z,63.47
2022-12-18T16:45:17.740Z,52.80
2022-12-18T16:47:47.459Z,54.17
2022-12-18T16:50:15.283Z,59.03
2022-12-18T16:52:43.912Z,56.47
2022-12-18T16:55:11.810Z,57.30
2022-12-18T16:57:39.659Z,50.07
2022-12-18T17:00:09.055Z,60.70
2022-12-18T17:02:37.129Z,60.33
2022-12-18T17:05:07.538Z,59.00
2022-12-18T17:07:35.474Z,62.80
2022-12-18T17:10:04.887Z,59.30
2022-12-18T17:12:32.759Z,89.87
2022-12-18T17:15:00.607Z,90.10
2022-12-18T17:17:28.534Z,81.57
2022-12-18T17:19:56.409Z,76.40
2022-12-18T17:22:25.674Z,66.53
2022-12-18T17:24:53.480Z,61.00
2022-12-18T17:27:21.327Z,70.97
2022-12-18T17:29:49.301Z,120.83
2022-12-18T17:32:17.295Z,62.13
2022-12-18T17:34:45.255Z,68.50
2022-12-18T17:37:13.173Z,59.20
2022-12-18T17:39:42.992Z,57.27
2022-12-18T17:42:14.805Z,51.47
2022-12-18T17:44:43.962Z,53.93
2022-12-18T17:47:12.916Z,49.97
2022-12-18T17:49:40.804Z,47.70
2022-12-18T17:52:08.653Z,49.30
2022-12-18T17:54:39.470Z,49.93
2022-12-18T17:57:09.210Z,50.60
2022-12-18T17:59:37.041Z,42.50
2022-12-18T18:02:05.189Z,44.70
2022-12-18T18:04:33.237Z,44.77
2022-12-18T18:07:01.106Z,49.33
2022-12-18T18:09:29.010Z,48.30
2022-12-18T18:12:14.296Z,50.27
2022-12-18T18:14:43.679Z,48.70
2022-12-18T18:17:11.599Z,44.77
2022-12-18T18:19:39.425Z,50.77
2022-12-18T18:22:08.484Z,44.83
2022-12-18T18:24:36.552Z,46.77
2022-12-18T18:27:04.558Z,49.73
2022-12-18T18:29:32.540Z,46.20
2022-12-18T18:32:01.876Z,43.27
2022-12-18T18:34:32.139Z,45.43
2022-12-18T18:37:00.553Z,46.37
2022-12-18T18:39:28.996Z,46.37
2022-12-18T18:41:56.941Z,47.90
2022-12-18T18:44:25.850Z,50.83
2022-12-18T18:46:55.173Z,46.57
2022-12-18T18:49:27.401Z,46.53
2022-12-18T18:51:56.254Z,47.67
2022-12-18T18:54:24.112Z,48.17
2022-12-18T18:59:39.955Z,46.67
2022-12-18T19:02:08.234Z,46.23
2022-12-18T19:04:37.862Z,46.33
2022-12-18T19:07:22.291Z,44.47
2022-12-18T19:09:58.052Z,46.53
2022-12-18T19:12:49.069Z,47.90
2022-12-18T19:15:16.937Z,42.77
2022-12-18T19:17:46.988Z,52.27
2022-12-18T19:20:16.731Z,47.93
2022-12-18T19:22:45.280Z,40.90
2022-12-18T19:25:26.809Z,41.63
2022-12-18T19:28:06.118Z,44.17
2022-12-18T19:30:40.134Z,50.23
2022-12-18T19:33:34.525Z,44.17
2022-12-18T19:35:57.489Z,44.73
2022-12-18T19:38:26.025Z,45.87
2022-12-18T19:40:54.711Z,46.13
2022-12-18T19:43:23.620Z,49.27
2022-12-18T19:45:55.796Z,40.90
2022-12-18T19:48:23.727Z,39.30
2022-12-18T19:50:51.545Z,43.73
2022-12-18T19:53:20.829Z,45.27
2022-12-18T19:55:48.735Z,43.20
2022-12-18T19:58:18.866Z,47.53
2022-12-18T20:00:49.266Z,40.20
2022-12-18T20:03:25.981Z,38.80
2022-12-18T20:06:08.299Z,41.67
2022-12-18T20:08:37.570Z,44.27
2022-12-18T20:11:05.748Z,47.33
2022-12-18T20:13:33.735Z,40.93
2022-12-18T20:16:01.933Z,42.97
2022-12-18T20:18:30.047Z,43.10
2022-12-18T20:20:58.442Z,47.63
2022-12-18T20:23:28.239Z,47.40
2022-12-18T20:25:57.650Z,51.00
2022-12-18T20:28:26.329Z,60.90
2022-12-18T20:31:00.457Z,57.87
2022-12-18T20:33:28.921Z,56.93
2022-12-18T20:36:02.258Z,58.03
2022-12-18T20:38:31.244Z,63.50
2022-12-18T20:41:02.504Z,61.90
2022-12-18T20:43:30.601Z,62.50
2022-12-18T20:46:03.114Z,65.93
2022-12-18T20:48:31.886Z,63.37
2022-12-18T20:51:02.117Z,66.83
2022-12-18T20:53:32.090Z,72.57
2022-12-18T20:56:02.134Z,67.73
2022-12-18T20:58:30.161Z,63.67
2022-12-18T21:01:06.263Z,65.37
2022-12-18T21:03:34.640Z,66.60
2022-12-18T21:06:02.625Z,75.77
2022-12-18T21:08:30.736Z,66.47
2022-12-18T21:11:32.520Z,75.67
2022-12-18T21:14:01.603Z,71.33
2022-12-18T21:16:29.577Z,68.13
2022-12-18T21:18:57.442Z,71.70
2022-12-18T21:21:26.978Z,70.30
2022-12-18T21:23:55.157Z,62.93
2022-12-18T21:26:24.800Z,69.70
2022-12-18T21:28:55.543Z,76.27
2022-12-18T21:31:26.893Z,60.37
2022-12-18T21:33:59.804Z,68.93
2022-12-18T21:36:31.025Z,64.83
2022-12-18T21:39:00.165Z,70.73
2022-12-18T21:42:01.516Z,56.60
2022-12-18T21:44:30.008Z,57.23
2022-12-18T21:47:12.007Z,54.67
2022-12-18T21:49:48.669Z,57.23
2022-12-18T21:52:16.525Z,58.87
2022-12-18T21:54:44.353Z,59.47
2022-12-18T21:57:13.293Z,55.20
2022-12-18T21:59:43.177Z,59.00
2022-12-18T22:02:15.535Z,57.37
2022-12-18T22:04:43.867Z,57.40
2022-12-18T22:07:11.965Z,44.93
2022-12-18T22:09:39.887Z,47.50
2022-12-18T22:12:09.180Z,48.30
2022-12-18T22:14:37.136Z,46.00
2022-12-18T22:17:05.175Z,49.03
2022-12-18T22:19:41.086Z,40.03
2022-12-18T22:22:10.824Z,44.17
2022-12-18T22:24:38.660Z,42.57
2022-12-18T22:27:06.525Z,43.57
2022-12-18T22:29:52.223Z,43.00
2022-12-18T22:32:30.503Z,45.37
2022-12-18T22:35:06.880Z,46.67
2022-12-18T22:37:36.993Z,47.07
2022-12-18T22:40:07.222Z,45.13
2022-12-18T22:42:35.433Z,41.70
2022-12-18T22:45:03.284Z,49.00
2022-12-18T22:47:31.151Z,43.03
2022-12-18T22:50:00.371Z,40.07
2022-12-18T22:52:28.261Z,37.80
2022-12-18T22:54:56.092Z,36.20
2022-12-18T22:57:24.822Z,34.53
2022-12-18T22:59:52.707Z,35.80
2022-12-18T23:02:21.033Z,23.77
2022-12-18T23:04:49.057Z,26.17
2022-12-18T23:07:18.685Z,26.37
2022-12-18T23:09:46.597Z,18.10
2022-12-18T23:12:17.878Z,13.17
2022-12-18T23:14:47.137Z,10.03
2022-12-18T23:17:15.084Z,10.00
2022-12-18T23:19:48.825Z,19.57
2022-12-18T23:22:18.914Z,21.03
2022-12-18T23:24:47.491Z,23.37
2022-12-18T23:27:15.424Z,24.40
2022-12-18T23:29:43.254Z,27.00
2022-12-18T23:32:13.111Z,21.40
2022-12-18T23:34:41.070Z,19.47
2022-12-18T23:37:08.941Z,21.10
2022-12-18T23:39:38.136Z,25.40
2022-12-18T23:42:06.127Z,25.07
2022-12-18T23:44:33.991Z,27.60
2022-12-18T23:47:04.010Z,28.97
2022-12-18T23:49:31.937Z,31.30
2022-12-18T23:51:59.926Z,36.70
2022-12-18T23:54:33.379Z,37.47
2022-12-18T23:57:03.030Z,38.97
2022-12-18T23:59:30.875Z,40.50
